Annawan, Illinois
Current Conditions -  °F | °C
As of 2:35 AM on Tuesday 27 Jan 2015 (Local Time) from KSQI Reporting Station
Overcast Overcast  
Wind Chill: 21°   Ceiling: 3800
Heat Index: 28°   Visibility: 3mi
Dew Point: 27°   Wind: 7mph
Humidity: 93%   Direction: 340°NNW
Pressure: 29.96"   Gusts: NA
Location:  41.4°N, 89.9°W
Report Text: KSQI 270835Z AUTO 34006KT 3SM OVC038 M02/M03 A2996 RMK AO1
Loading
Personal Weather Stations






























Interactive Weather Map New forecast layout! Learn more

10-Day Weather Forecast

Advertisements
Track Severe Weather on mobile